• Join FlightAware (Why Join?)
  • Login
  • US Flag 
04:13PM EDT


 

Airport Tracker/Info


-or-


 

Live Flight TrackerFlight Track Log ✈ DAL268 ✈ 24-Jul-2013 ✈ KSFO - KJFK

Flight Track Log - Related Links

Times and Time Zones

All times are in EDT time to prevent confusion due to time zone crossing. See the DAL268 flight status page for this flight to view local times or setup timezone preferences in your user account.

Time Position Orientation Groundspeed Altitude Reporting Facility
EDT Latitude Longitude Course Direction KTS MPH feet Rate Location/Type
02:17PM 37.6160 -122.3810 303° West 11 13  Level FlightAware
02:18PM 37.6150 -122.3800 142° Southeast  Level FlightAware
02:21PM 37.7158 -122.0438 63° Northeast  Level FlightAware Approximate
02:21PM 37.6150 -122.3810 63° Northeast 13 15  Level FlightAware
02:23PM 37.6843 -122.1303 67° East  Level FlightAware Approximate
02:24PM 37.7349 -121.9957 65° Northeast  Level FlightAware Approximate
02:25PM 37.7842 -121.8601 65° Northeast  Level FlightAware Approximate
02:26PM 37.8261 -121.7218 67° East  Level FlightAware Approximate
02:27PM 37.8743 -121.5862 72° East  Level FlightAware Approximate
02:28PM 37.6080 -122.3850 218° Southwest 15 17  Level FlightAware
02:30PM 37.6070 -122.3840 142° Southeast 60 Level FlightAware
02:32PM 37.6813 -122.1395 67° East  Level FlightAware Approximate
02:33PM 37.7315 -122.0046 63° Northeast  Level FlightAware Approximate
02:34PM 37.7809 -121.8692 65° Northeast  Level FlightAware Approximate
02:34PM 37.6060 -122.3830 65° Northeast 10 12  Level FlightAware
02:35PM 37.6060 -122.3820 67° East 120 Level FlightAware
02:36PM 37.6866 -122.1235 67° East  Level FlightAware Approximate
02:36PM 37.6070 -122.3810 38° Northeast 12 14  Level FlightAware
02:38PM 37.6100 -122.3780 38° Northeast 80 92 360 Level FlightAware
02:38PM 37.6210 -122.3710 27° Northeast 160 184 1,080 Level FlightAware
02:38PM 37.6339 -122.3630 26° Northeast 168 193 700 2,400 Climbing FlightAware ADS-B
02:38PM 37.6395 -122.3570 40° Northeast 172 198 1,100 2,460 Climbing FlightAware ADS-B
02:38PM 37.6413 -122.3550 41° Northeast 177 204 1,200 1,620 Climbing FlightAware ADS-B
02:39PM 37.6502 -122.3430 47° Northeast 192 221 1,600 1,620 Climbing FlightAware ADS-B
02:39PM 37.6639 -122.3250 46° Northeast 218 251 2,200 1,620 Climbing FlightAware ADS-B
02:39PM 37.6751 -122.3100 47° Northeast 237 273 2,600 1,740 Climbing FlightAware ADS-B
02:40PM 37.6908 -122.2900 45° Northeast 261 300 3,200 2,220 Climbing FlightAware ADS-B
02:40PM 37.7111 -122.2630 46° Northeast 270 311 4,200 2,700 Climbing FlightAware ADS-B
02:40PM 37.7291 -122.2400 45° Northeast 277 319 5,200 2,820 Climbing FlightAware ADS-B
02:41PM 37.7453 -122.2190 46° Northeast 284 327 6,000 2,880 Climbing FlightAware ADS-B
02:41PM 37.7617 -122.1980 45° Northeast 288 331 6,900 3,000 Climbing FlightAware ADS-B
02:41PM 37.7756 -122.1800 46° Northeast 289 333 7,600 2,880 Climbing FlightAware ADS-B
02:41PM 37.7923 -122.1580 46° Northeast 292 336 8,500 2,580 Climbing FlightAware ADS-B
02:42PM 37.8008 -122.1410 58° Northeast 295 339 8,900 2,220 Climbing FlightAware ADS-B
02:42PM 37.8033 -122.1350 62° Northeast 296 341 9,100 3,000 Climbing FlightAware ADS-B
02:42PM 37.8055 -122.1290 65° Northeast 296 341 9,300 3,000 Climbing FlightAware ADS-B
02:42PM 37.8085 -122.1180 71° East 299 344 9,600 2,520 Climbing FlightAware ADS-B
02:42PM 37.8122 -122.1050 70° East 301 346 9,900 2,100 Climbing FlightAware ADS-B
02:42PM 37.8156 -122.0960 64° Northeast 303 349 10,100 1,620 Climbing FlightAware ADS-B
02:42PM 37.8242 -122.0770 60° Northeast 313 360 10,400 1,080 Climbing FlightAware ADS-B
02:43PM 37.8510 -122.0250 57° Northeast 351 404 10,900 1,140 Climbing FlightAware ADS-B
02:43PM 37.8804 -121.9700 56° Northeast 380 437 11,600 1,800 Climbing FlightAware ADS-B
02:44PM 37.9177 -121.9000 56° Northeast 390 449 13,000 2,220 Climbing FlightAware ADS-B
02:44PM 37.9389 -121.8610 55° Northeast 397 457 13,800 1,980 Climbing FlightAware ADS-B
02:45PM 37.9674 -121.7770 67° East 399 459 15,000 1,980 Climbing FlightAware ADS-B
02:45PM 37.9785 -121.7030 79° East 416 479 16,100 2,040 Climbing FlightAware ADS-B
02:46PM 37.9888 -121.6300 80° East 420 483 17,100 1,860 Climbing FlightAware ADS-B
02:47PM 37.9992 -121.5560 80° East 426 490 18,000 1,740 Climbing FlightAware ADS-B
02:47PM 38.0096 -121.4800 80° East 432 497 18,900 1,740 Climbing FlightAware ADS-B
02:48PM 38.0201 -121.4030 80° East 438 504 19,800 1,680 Climbing FlightAware ADS-B
02:48PM 38.0306 -121.3260 80° East 445 512 20,600 1,620 Climbing FlightAware ADS-B
02:49PM 38.0413 -121.2490 80° East 449 517 21,500 1,680 Climbing FlightAware ADS-B
02:49PM 38.0526 -121.1650 80° East 455 524 22,400 1,560 Climbing FlightAware ADS-B
02:50PM 38.0720 -121.0260 80° East 465 535 23,700 1,440 Climbing FlightAware
02:51PM 38.0980 -120.9060 75° East 475 547 24,800 1,380 Climbing FlightAware
02:51PM 38.1240 -120.7980 73° East 483 556 25,700 1,260 Climbing FlightAware
02:52PM 38.1480 -120.7000 73° East 492 566 26,400 1,260 Climbing FlightAware
02:53PM 38.1760 -120.5810 73° East 497 572 27,400 1,380 Climbing FlightAware
02:53PM 38.2000 -120.4800 73° East 501 577 28,200 1,440 Climbing FlightAware
02:54PM 38.2340 -120.3380 73° East 502 578 29,500 1,560 Climbing FlightAware
02:55PM 38.2600 -120.2280 73° East 496 571 30,600 1,500 Climbing FlightAware
02:55PM 38.2870 -120.1120 73° East 494 568 31,600 1,260 Climbing FlightAware
02:56PM 38.3090 -120.0080 75° East 496 571 32,300 1,260 Climbing FlightAware
02:57PM 38.3280 -119.8840 79° East 493 567 33,300 1,500 Climbing FlightAware
02:57PM 38.3440 -119.7880 78° East 488 562 34,200 1,260 Climbing FlightAware
02:58PM 38.3640 -119.6650 78° East 489 563 35,000 960 Climbing FlightAware
02:59PM 38.3840 -119.5520 77° East 492 566 35,600 900 Climbing FlightAware
03:00PM 38.4070 -119.4140 78° East 491 565 36,400 900 Climbing FlightAware
03:00PM 38.4260 -119.3020 78° East 489 563 37,000 420 Climbing FlightAware
03:01PM 38.4460 -119.1790 78° East 486 559 37,000  Level FlightAware
03:02PM 38.4630 -119.0770 78° East 487 560 37,000  Level FlightAware
03:02PM 38.4830 -118.9460 79° East 488 562 37,000  Level FlightAware
03:03PM 38.5000 -118.8390 78° East 489 563 37,000  Level FlightAware
03:04PM 38.5170 -118.7260 79° East 490 564 37,000  Level FlightAware
03:04PM 38.5370 -118.5960 79° East 491 565 37,000  Level FlightAware
03:05PM 38.5560 -118.4720 79° East 491 565 37,000  Level FlightAware
03:06PM 38.5740 -118.3520 79° East 490 564 37,000  Level FlightAware
03:07PM 38.5920 -118.2320 79° East 490 564 37,000  Level FlightAware
03:07PM 38.6090 -118.1200 79° East 491 565 37,000  Level FlightAware
03:08PM 38.6240 -118.0160 80° East 490 564 37,000  Level FlightAware
03:09PM 38.6440 -117.8880 79° East 490 564 37,000  Level FlightAware
03:09PM 38.6570 -117.8010 79° East 490 564 37,000  Level FlightAware
03:10PM 38.6750 -117.6850 79° East 490 564 37,000  Level FlightAware
03:11PM 38.6880 -117.5950 79° East 490 564 37,000  Level FlightAware
03:11PM 38.7020 -117.5080 78° East 490 564 37,000  Level FlightAware
03:12PM 38.7180 -117.3960 80° East 490 564 37,000  Level FlightAware
03:13PM 38.7410 -117.2510 78° East 490 564 37,000  Level FlightAware
03:14PM 38.7540 -117.1630 79° East 490 564 37,000  Level FlightAware
03:15PM 38.7720 -117.0450 79° East 490 564 37,000  Level FlightAware
03:15PM 38.7850 -116.9570 79° East 490 564 37,000  Level FlightAware
03:16PM 38.7990 -116.8630 79° East 490 564 37,000  Level FlightAware
03:16PM 38.8130 -116.7730 79° East 490 564 37,000  Level FlightAware
03:17PM 38.8310 -116.6560 79° East 490 564 37,000  Level FlightAware
03:18PM 38.8430 -116.5710 80° East 490 564 37,000  Level FlightAware
03:18PM 38.8256 -116.2153 80° East 492 566 37,000  Level Oakland Center
03:19PM 38.8425 -116.0406 83° East 492 566 37,000  Level Oakland Center
03:21PM 38.8744 -115.7622 82° East 494 568 37,000  Level Salt Lake Center
03:22PM 38.8989 -115.5878 80° East 495 570 37,000  Level Salt Lake Center
03:23PM 38.9258 -115.4139 79° East 497 572 37,000  Level Salt Lake Center
03:24PM 38.9564 -115.2278 78° East 500 575 37,000  Level Salt Lake Center
03:25PM 38.9822 -115.0553 79° East 495 570 37,000  Level Salt Lake Center
03:26PM 39.0106 -114.8803 78° East 497 572 37,000  Level Salt Lake Center
03:27PM 39.0372 -114.7081 79° East 494 568 37,000  Level Salt Lake Center
03:28PM 39.0875 -114.5414 69° East 495 570 37,000  Level Salt Lake Center
03:33PM 39.3550 -113.6380 69° East 494 568 37,000  Level FlightAware
03:34PM 39.3810 -113.5510 69° East 494 568 37,000  Level FlightAware
03:35PM 39.4210 -113.4130 69° East 494 568 37,000  Level FlightAware
03:35PM 39.4348 -113.3660 69° East 495 570 37,000  Level FlightAware ADS-B
03:36PM 39.4592 -113.2820 69° East 496 571 37,000  Level FlightAware ADS-B
03:36PM 39.4876 -113.1840 69° East 494 568 37,000  Level FlightAware ADS-B
03:37PM 39.5117 -113.1000 70° East 495 570 37,000 360 Level FlightAware ADS-B
03:37PM 39.5380 -113.0090 69° East 494 568 37,400 900 Climbing FlightAware ADS-B
03:38PM 39.5619 -112.9250 70° East 490 564 38,000 840 Climbing FlightAware ADS-B
03:38PM 39.5884 -112.8330 69° East 491 565 38,300 600 Climbing FlightAware ADS-B
03:39PM 39.6122 -112.7490 70° East 491 565 38,700 600 Climbing FlightAware ADS-B
03:39PM 39.6406 -112.6490 70° East 490 564 39,000 240 Climbing FlightAware ADS-B
03:40PM 39.6644 -112.5640 70° East 488 562 39,000  Level FlightAware ADS-B
03:40PM 39.6877 -112.4810 70° East 488 562 39,000  Level FlightAware ADS-B
03:41PM 39.7121 -112.3940 70° East 489 563 39,000  Level FlightAware ADS-B
03:41PM 39.7375 -112.3020 70° East 490 564 39,000  Level FlightAware ADS-B
03:42PM 39.7683 -112.1920 70° East 491 565 39,000  Level FlightAware ADS-B
03:43PM 39.7915 -112.1080 70° East 491 565 39,000  Level FlightAware ADS-B
03:43PM 39.8146 -112.0230 70° East 491 565 39,000  Level FlightAware ADS-B
03:44PM 39.8378 -111.9390 70° East 491 565 39,000  Level FlightAware ADS-B
03:44PM 39.8609 -111.8550 70° East 491 565 39,000  Level FlightAware ADS-B
03:45PM 39.8861 -111.7620 71° East 491 565 39,000  Level FlightAware ADS-B
03:45PM 39.9093 -111.6770 70° East 492 566 39,000  Level FlightAware ADS-B
03:46PM 39.9321 -111.5930 70° East 492 566 39,000  Level FlightAware ADS-B
03:46PM 39.9581 -111.4960 71° East 491 565 39,000  Level FlightAware ADS-B
03:47PM 39.9805 -111.4130 71° East 491 565 39,000  Level FlightAware ADS-B
03:47PM 40.0030 -111.3290 71° East 490 564 39,000  Level FlightAware ADS-B
03:48PM 40.0277 -111.2360 71° East 490 564 39,000  Level FlightAware ADS-B
03:48PM 40.0500 -111.1520 71° East 490 564 39,000  Level FlightAware ADS-B
03:49PM 40.0726 -111.0670 71° East 491 565 39,000  Level FlightAware ADS-B
03:49PM 40.0959 -110.9790 71° East 492 566 39,000  Level FlightAware ADS-B
03:50PM 40.1181 -110.8940 71° East 491 565 39,000  Level FlightAware ADS-B
03:50PM 40.1402 -110.8100 71° East 491 565 39,000  Level FlightAware ADS-B
03:51PM 40.1624 -110.7250 71° East 492 566 39,000  Level FlightAware ADS-B
03:51PM 40.1861 -110.6340 71° East 492 566 39,000  Level FlightAware ADS-B
03:52PM 40.2135 -110.5290 71° East 492 566 39,000  Level FlightAware ADS-B
03:53PM 40.2355 -110.4440 71° East 493 567 39,000  Level FlightAware ADS-B
03:53PM 40.2637 -110.3340 71° East 493 567 39,000  Level FlightAware ADS-B
03:54PM 40.2873 -110.2420 71° East 495 570 39,000  Level FlightAware ADS-B
03:54PM 40.3110 -110.1500 71° East 494 568 39,000  Level FlightAware
03:55PM 40.3360 -110.0510 72° East 494 568 39,000  Level FlightAware
03:56PM 40.3630 -109.9420 72° East 494 568 39,000  Level FlightAware
03:56PM 40.3930 -109.8240 72° East 495 570 39,000  Level FlightAware
03:57PM 40.4250 -109.6990 71° East 495 570 39,000  Level FlightAware
03:58PM 40.4580 -109.5640 72° East 496 571 39,000  Level FlightAware
03:58PM 40.4870 -109.4500 71° East 496 571 39,000  Level FlightAware
03:59PM 40.5190 -109.3170 72° East 495 570 39,000  Level FlightAware
04:00PM 40.5440 -109.2180 72° East 495 570 39,000  Level FlightAware
04:01PM 40.5750 -109.0880 73° East 494 568 39,000  Level FlightAware
04:01PM 40.6040 -108.9700 72° East 493 567 39,000  Level FlightAware
04:02PM 40.6320 -108.8560 72° East 490 564 39,000  Level FlightAware
04:03PM 40.6630 -108.7250 73° East 489 563 39,000  Level FlightAware
04:03PM 40.6910 -108.6110 72° East 489 563 39,000  Level FlightAware
04:04PM 40.7150 -108.5070 73° East 489 563 39,000  Level FlightAware
04:05PM 40.7410 -108.3990 72° East 488 562 39,000  Level FlightAware
04:05PM 40.7660 -108.2930 73° East 487 560 39,000  Level FlightAware
04:06PM 40.7970 -108.1620 73° East 487 560 39,000  Level FlightAware
04:07PM 40.8250 -108.0390 73° East 488 562 39,000  Level FlightAware
04:07PM 40.8530 -107.9210 73° East 488 562 39,000  Level FlightAware
04:08PM 40.8790 -107.8080 73° East 489 563 39,000  Level FlightAware
04:09PM 40.9050 -107.6960 73° East 488 562 39,000  Level FlightAware
04:09PM 40.9280 -107.5920 74° East 489 563 39,000  Level FlightAware
04:10PM 40.9580 -107.4610 73° East 490 564 39,000  Level FlightAware
04:11PM 41.0040 -107.2620 73° East 491 565 39,000  Level FlightAware
04:12PM 41.0410 -107.0920 74° East 493 567 39,000  Level FlightAware
04:13PM 41.0690 -106.9640 74° East 493 567 39,000  Level FlightAware
04:14PM 41.0880 -106.8470 78° East 495 570 39,000  Level FlightAware
04:14PM 41.1040 -106.7370 79° East 495 570 39,000  Level FlightAware
04:15PM 41.1280 -106.6230 74° East 495 570 39,000  Level FlightAware
04:16PM 41.1560 -106.4950 74° East 496 571 39,000  Level FlightAware
04:16PM 41.1780 -106.3950 74° East 497 572 39,000  Level FlightAware
04:17PM 41.2080 -106.2620 73° East 498 573 39,000  Level FlightAware
04:18PM 41.2360 -106.1440 72° East 500 575 39,000  Level FlightAware
04:18PM 41.2670 -106.0160 72° East 500 575 39,000  Level FlightAware
04:19PM 41.2940 -105.8990 73° East 501 577 39,000  Level FlightAware
04:19PM 41.3080 -105.8370 73° East 500 575 39,000  Level FlightAware
04:20PM 41.3430 -105.6890 72° East 499 574 39,000  Level FlightAware
04:21PM 41.3690 -105.5830 72° East 498 573 39,000  Level FlightAware
04:22PM 41.4000 -105.4490 73° East 498 573 39,000  Level FlightAware
04:22PM 41.4250 -105.3440 72° East 499 574 39,000  Level FlightAware
04:23PM 41.4560 -105.2130 72° East 499 574 39,000  Level FlightAware
04:24PM 41.4967 -105.0380 73° East 500 575 39,000  Level FlightAware ADS-B
04:24PM 41.5169 -104.9500 73° East 499 574 39,000  Level FlightAware ADS-B
04:25PM 41.5420 -104.8390 73° East 500 575 39,000  Level FlightAware ADS-B
04:26PM 41.5622 -104.7500 73° East 499 574 39,000  Level FlightAware ADS-B
04:26PM 41.5818 -104.6600 74° East 499 574 39,000  Level FlightAware ADS-B
04:27PM 41.6031 -104.5440 76° East 500 575 39,000  Level FlightAware ADS-B
04:27PM 41.6172 -104.4520 78° East 499 574 39,000  Level FlightAware ADS-B
04:28PM 41.6304 -104.3590 79° East 498 573 39,000  Level FlightAware ADS-B
04:28PM 41.6437 -104.2670 79° East 496 571 39,000  Level FlightAware ADS-B
04:29PM 41.6578 -104.1760 78° East 495 570 39,000  Level FlightAware ADS-B
04:29PM 41.6691 -104.0860 80° East 500 575 39,000  Level FlightAware ADS-B
04:30PM 41.6755 -103.9920 85° East 502 578 39,000  Level FlightAware ADS-B
04:30PM 41.6781 -103.8980 88° East 503 579 39,000  Level FlightAware ADS-B
04:31PM 41.6804 -103.8040 88° East 503 579 39,000  Level FlightAware ADS-B
04:31PM 41.6823 -103.7100 88° East 500 575 39,000  Level FlightAware ADS-B
04:32PM 41.6841 -103.6170 88° East 498 573 39,000  Level FlightAware ADS-B
04:32PM 41.6861 -103.5250 88° East 498 573 39,000  Level FlightAware ADS-B
04:33PM 41.6876 -103.4260 89° East 501 577 39,000  Level FlightAware ADS-B
04:33PM 41.6888 -103.3390 89° East 503 579 39,000  Level FlightAware ADS-B
04:34PM 41.6893 -103.2410 90° East 502 578 39,000  Level FlightAware ADS-B
04:34PM 41.6899 -103.1460 89° East 502 578 39,000  Level FlightAware ADS-B
04:35PM 41.6900 -103.0530 90° East 498 573 39,000  Level FlightAware ADS-B
04:35PM 41.6907 -102.9390 89° East 498 573 39,000  Level FlightAware ADS-B
04:36PM 41.6925 -102.8070 89° East 500 575 39,000  Level FlightAware ADS-B
04:37PM 41.7008 -102.6800 85° East 508 585 39,000  Level FlightAware ADS-B
04:37PM 41.7111 -102.5800 82° East 509 586 39,000  Level FlightAware ADS-B
04:38PM 41.7292 -102.4220 81° East 511 588 39,000  Level FlightAware ADS-B
04:39PM 41.7470 -102.2700 81° East 514 592 39,000  Level FlightAware ADS-B
04:40PM 41.7586 -102.1720 81° East 512 589 39,000  Level FlightAware ADS-B
04:40PM 41.7708 -102.0670 81° East 512 589 39,000  Level FlightAware ADS-B
04:41PM 41.7925 -101.8770 81° East 506 582 39,000  Level FlightAware ADS-B
04:42PM 41.8031 -101.7840 81° East 499 574 39,000  Level FlightAware ADS-B
04:42PM 41.8173 -101.6570 81° East 498 573 39,000  Level FlightAware ADS-B
04:43PM 41.8274 -101.5660 81° East 491 565 39,000  Level FlightAware ADS-B
04:44PM 41.8441 -101.4140 82° East 491 565 39,000  Level FlightAware ADS-B
04:44PM 41.8584 -101.2820 82° East 497 572 39,000  Level FlightAware ADS-B
04:46PM 41.8850 -101.0261 82° East 499 574 39,000  Level Minneapolis Center
04:47PM 41.9053 -100.8336 82° East 513 590 39,000  Level Minneapolis Center
04:48PM 41.9250 -100.6375 82° East 525 604 39,000  Level Minneapolis Center
04:49PM 41.9458 -100.4411 82° East 529 609 39,000  Level Minneapolis Center
04:50PM 41.9653 -100.2439 82° East 531 611 39,000  Level Minneapolis Center
04:51PM 41.9850 -100.0450 82° East 535 616 39,000  Level Minneapolis Center
04:52PM 41.9900 -99.8042 88° East 538 619 39,000  Level Minneapolis Center
04:53PM 41.9817 -99.6031 93° East 537 618 39,000  Level Minneapolis Center
04:59PM 41.9270 -98.5240 93° East 39,000  Level FlightAware
05:02PM 41.9520 -97.8020 87° East 508 585 39,000  Level FlightAware
05:03PM 41.9630 -97.6920 82° East 510 587 39,000  Level FlightAware
05:04PM 41.9740 -97.5880 82° East 510 587 39,000  Level FlightAware
05:04PM 41.9870 -97.4650 82° East 510 587 39,000  Level FlightAware
05:05PM 41.9990 -97.3000 84° East 507 583 39,000  Level FlightAware
05:06PM 42.0090 -97.1820 83° East 508 585 39,000  Level FlightAware
05:06PM 42.0210 -97.0450 83° East 509 586 39,000  Level FlightAware
05:07PM 42.0330 -96.9050 83° East 509 586 39,000  Level FlightAware
05:08PM 42.0430 -96.7830 84° East 509 586 39,000  Level FlightAware
05:09PM 42.0560 -96.6290 83° East 509 586 39,000  Level FlightAware
05:09PM 42.0670 -96.5080 83° East 509 586 39,000  Level FlightAware
05:10PM 42.0820 -96.3480 83° East 509 586 39,000  Level FlightAware
05:11PM 42.0960 -96.1770 84° East 507 583 39,000  Level FlightAware
05:12PM 42.1060 -96.0660 83° East 507 583 39,000  Level FlightAware
05:12PM 42.1170 -95.9270 84° East 506 582 39,000  Level FlightAware
05:13PM 42.1290 -95.7880 83° East 505 581 39,000  Level FlightAware
05:14PM 42.1400 -95.6570 83° East 505 581 39,000  Level FlightAware
05:14PM 42.1490 -95.5330 84° East 505 581 39,000  Level FlightAware
05:15PM 42.1610 -95.3910 83° East 506 582 39,000  Level FlightAware
05:16PM 42.1690 -95.2790 84° East 507 583 39,000  Level FlightAware
05:16PM 42.1790 -95.1550 84° East 507 583 39,000  Level FlightAware
05:17PM 42.1890 -95.0300 84° East 507 583 39,000  Level FlightAware
05:18PM 42.1990 -94.8950 84° East 505 581 39,000  Level FlightAware
05:18PM 42.2070 -94.7830 84° East 505 581 39,000  Level FlightAware
05:19PM 42.2160 -94.6500 85° East 505 581 39,000  Level FlightAware
05:20PM 42.2260 -94.5210 84° East 505 581 39,000  Level FlightAware
05:21PM 42.2350 -94.3860 85° East 505 581 39,000  Level FlightAware
05:21PM 42.2440 -94.2600 84° East 504 580 39,000  Level FlightAware
05:22PM 42.2530 -94.1220 85° East 503 579 39,000  Level FlightAware
05:23PM 42.2620 -93.9940 85° East 502 578 39,000  Level FlightAware
05:23PM 42.2680 -93.8970 85° East 502 578 39,000  Level FlightAware
05:24PM 42.2770 -93.7550 85° East 502 578 39,000  Level FlightAware
05:25PM 42.2850 -93.6280 85° East 505 581 39,000  Level FlightAware
05:25PM 42.2940 -93.4890 85° East 505 581 39,000  Level FlightAware
05:26PM 42.3020 -93.3670 85° East 504 580 39,000  Level FlightAware
05:27PM 42.3100 -93.2270 86° East 502 578 39,000  Level FlightAware
05:27PM 42.3180 -93.0940 85° East 501 577 39,000  Level FlightAware
05:28PM 42.3240 -92.9870 86° East 500 575 39,000  Level FlightAware
05:29PM 42.3310 -92.8680 85° East 500 575 39,000  Level FlightAware
05:29PM 42.3380 -92.7280 86° East 499 574 39,000  Level FlightAware
05:30PM 42.3450 -92.6150 85° East 498 573 39,000  Level FlightAware
05:31PM 42.3510 -92.4980 86° East 498 573 39,000  Level FlightAware
05:31PM 42.3580 -92.3620 86° East 500 575 39,000  Level FlightAware
05:32PM 42.3650 -92.2310 86° East 501 577 39,000  Level FlightAware
05:33PM 42.3700 -92.1150 87° East 502 578 39,000  Level FlightAware
05:33PM 42.3780 -91.9700 86° East 503 579 39,000  Level FlightAware
05:34PM 42.3840 -91.8380 86° East 503 579 39,000  Level FlightAware
05:35PM 42.3900 -91.7150 86° East 502 578 39,000  Level FlightAware
05:35PM 42.3940 -91.6070 87° East 503 579 39,000  Level FlightAware
05:36PM 42.4010 -91.4620 86° East 503 579 39,000  Level FlightAware
05:37PM 42.4080 -91.3060 86° East 503 579 39,000  Level FlightAware
05:38PM 42.4130 -91.1790 87° East 504 580 39,000  Level FlightAware
05:38PM 42.4180 -91.0540 87° East 503 579 39,000  Level FlightAware
05:39PM 42.4240 -90.9130 87° East 499 574 39,000  Level FlightAware
05:40PM 42.4280 -90.7970 87° East 495 570 39,000  Level FlightAware
05:40PM 42.4330 -90.6540 87° East 477 549 39,000  Level FlightAware
05:41PM 42.4380 -90.5370 87° East 472 543 39,000  Level FlightAware
05:42PM 42.4420 -90.4180 87° East 470 541 39,000  Level FlightAware
05:42PM 42.4450 -90.3130 88° East 471 542 39,000  Level FlightAware
05:43PM 42.4500 -90.1810 87° East 473 544 39,000  Level FlightAware
05:44PM 42.4530 -90.0830 88° East 474 545 39,000  Level FlightAware
05:44PM 42.4570 -89.9570 87° East 476 548 39,000  Level FlightAware
05:45PM 42.4610 -89.8270 88° East 478 550 39,000  Level FlightAware
05:46PM 42.4640 -89.7080 88° East 481 554 39,000  Level FlightAware
05:47PM 42.4680 -89.5810 88° East 483 556 39,000  Level FlightAware
05:47PM 42.4710 -89.4530 88° East 484 557 39,000  Level FlightAware
05:48PM 42.4750 -89.3200 88° East 484 557 39,000  Level FlightAware
05:49PM 42.4780 -89.1950 88° East 484 557 39,000  Level FlightAware
05:49PM 42.4800 -89.1030 88° East 484 557 39,000  Level FlightAware
05:50PM 42.4830 -88.9640 88° East 485 558 39,000  Level FlightAware
05:51PM 42.4860 -88.8320 88° East 485 558 39,000  Level FlightAware
05:51PM 42.4880 -88.7230 89° East 486 559 39,000  Level FlightAware
05:52PM 42.4900 -88.6060 89° East 486 559 39,000  Level FlightAware
05:53PM 42.4930 -88.4790 88° East 487 560 39,000  Level FlightAware
05:53PM 42.4940 -88.3630 89° East 488 562 39,000  Level FlightAware
05:54PM 42.4970 -88.2160 88° East 488 562 39,000  Level FlightAware
05:55PM 42.4990 -88.0930 89° East 487 560 39,000  Level FlightAware
05:55PM 42.5000 -87.9600 89° East 487 560 39,000  Level FlightAware
05:56PM 42.5000 -87.8570 90° East 487 560 39,000  Level FlightAware
05:57PM 42.5000 -87.7240 90° East 486 559 39,000  Level FlightAware
05:57PM 42.4990 -87.6030 91° East 484 557 39,000  Level FlightAware
05:58PM 42.4990 -87.4930 90° East 484 557 39,000  Level FlightAware
05:59PM 42.4980 -87.3730 91° East 483 556 39,000  Level FlightAware
05:59PM 42.4980 -87.2500 90° East 483 556 39,000  Level FlightAware
06:00PM 42.4970 -87.1180 91° East 484 557 39,000  Level FlightAware
06:01PM 42.4960 -86.9990 91° East 484 557 39,000  Level FlightAware
06:01PM 42.4950 -86.8650 91° East 484 557 39,000  Level FlightAware
06:02PM 42.4930 -86.7330 91° East 484 557 39,000  Level FlightAware
06:03PM 42.4920 -86.6080 91° East 484 557 39,000  Level FlightAware
06:04PM 42.4900 -86.4860 91° East 484 557 39,000  Level FlightAware
06:04PM 42.4890 -86.3540 91° East 484 557 39,000  Level FlightAware
06:05PM 42.4870 -86.2320 91° East 483 556 39,000  Level FlightAware
06:06PM 42.4850 -86.1000 91° East 483 556 39,000  Level FlightAware
06:06PM 42.4830 -85.9710 91° East 483 556 39,000  Level FlightAware
06:07PM 42.4810 -85.8510 91° East 483 556 39,000  Level FlightAware
06:08PM 42.4780 -85.7320 92° East 483 556 39,000  Level FlightAware
06:08PM 42.4750 -85.5910 92° East 484 557 39,000  Level FlightAware
06:09PM 42.4730 -85.4660 91° East 484 557 39,000  Level FlightAware
06:10PM 42.4700 -85.3380 92° East 485 558 39,000  Level FlightAware
06:10PM 42.4670 -85.2290 92° East 485 558 39,000  Level FlightAware
06:11PM 42.4640 -85.0980 92° East 486 559 39,000  Level FlightAware
06:12PM 42.4610 -84.9580 92° East 486 559 39,000  Level FlightAware
06:13PM 42.4570 -84.8410 93° East 487 560 39,000  Level FlightAware
06:13PM 42.4510 -84.7020 93° East 487 560 39,000  Level FlightAware
06:14PM 42.4440 -84.5850 95° East 487 560 39,000  Level FlightAware
06:15PM 42.4350 -84.4440 95° East 495 570 39,000  Level FlightAware
06:15PM 42.4280 -84.3130 94° East 500 575 39,000  Level FlightAware
06:16PM 42.4200 -84.1860 95° East 505 581 39,000  Level FlightAware
06:17PM 42.4130 -84.0690 95° East 506 582 39,000  Level FlightAware
06:17PM 42.4060 -83.9480 94° East 505 581 39,000  Level FlightAware
06:18PM 42.3980 -83.8190 95° East 506 582 39,000  Level FlightAware
06:19PM 42.3900 -83.6850 95° East 506 582 39,000  Level FlightAware
06:19PM 42.3820 -83.5710 95° East 505 581 39,000  Level FlightAware
06:20PM 42.3740 -83.4400 95° East 506 582 39,000  Level FlightAware
06:21PM 42.3650 -83.3150 96° East 505 581 39,000  Level FlightAware
06:21PM 42.3570 -83.1890 95° East 505 581 39,000  Level FlightAware
06:22PM 42.3550 -83.1640 96° East 505 581 39,000  Level FlightAware
06:23PM 42.3400 -82.9490 95° East 504 580 39,000  Level FlightAware
06:23PM 42.3320 -82.8290 95° East 503 579 39,000 360 Level FlightAware
06:24PM 42.3230 -82.7150 96° East 500 575 39,500 1,200 Climbing FlightAware
06:25PM 42.3150 -82.6030 95° East 488 562 40,500 1,020 Climbing FlightAware
06:25PM 42.3050 -82.4600 95° East 488 562 41,000 360 Climbing FlightAware
06:26PM 42.2960 -82.3480 96° East 488 562 41,000  Level FlightAware
06:27PM 42.2850 -82.2020 96° East 488 562 41,000  Level FlightAware
06:27PM 42.2760 -82.0860 96° East 491 565 41,000  Level FlightAware
06:28PM 42.2670 -81.9680 96° East 494 568 41,000  Level FlightAware
06:29PM 42.2580 -81.8570 96° East 495 570 41,000  Level FlightAware
06:29PM 42.2480 -81.7360 96° East 496 571 41,000  Level FlightAware
06:30PM 42.2370 -81.5970 96° East 499 574 41,000  Level FlightAware
06:31PM 42.2260 -81.4670 96° East 500 575 41,000  Level FlightAware
06:31PM 42.2170 -81.3540 96° East 500 575 41,000  Level FlightAware
06:32PM 42.2040 -81.2130 97° East 501 577 41,000  Level FlightAware
06:33PM 42.1950 -81.1060 96° East 501 577 41,000  Level FlightAware
06:33PM 42.1850 -80.9890 97° East 500 575 41,000  Level FlightAware
06:34PM 42.1730 -80.8490 97° East 500 575 41,000  Level FlightAware
06:35PM 42.1620 -80.7360 97° East 500 575 41,000  Level FlightAware
06:36PM 42.1490 -80.5860 97° East 500 575 41,000  Level FlightAware
06:36PM 42.1390 -80.4760 97° East 500 575 41,000  Level FlightAware
06:37PM 42.1270 -80.3470 97° East 499 574 41,000  Level FlightAware
06:38PM 42.1150 -80.2240 97° East 499 574 41,000  Level FlightAware
06:38PM 42.1070 -80.1390 97° East 499 574 41,000  Level FlightAware
06:39PM 42.0860 -79.9180 97° East 498 573 41,000  Level FlightAware
06:40PM 42.0760 -79.8170 98° East 498 573 41,000  Level FlightAware
06:41PM 42.0610 -79.6630 97° East 497 572 41,000  Level FlightAware
06:41PM 42.0470 -79.5310 98° East 495 570 41,000  Level FlightAware
06:42PM 42.0350 -79.4140 98° East 493 567 41,000  Level FlightAware
06:43PM 42.0230 -79.2930 98° East 492 566 41,000  Level FlightAware
06:43PM 42.0120 -79.1850 98° East 490 564 41,000  Level FlightAware
06:44PM 41.9980 -79.0560 98° East 488 562 41,000  Level FlightAware
06:45PM 41.9840 -78.9220 98° East 487 560 41,000  Level FlightAware
06:45PM 41.9740 -78.8320 98° East 488 562 41,000  Level FlightAware
06:46PM 41.9600 -78.6970 98° East 488 562 41,000  Level FlightAware
06:47PM 41.9450 -78.5640 99° East 489 563 41,000  Level FlightAware
06:47PM 41.9330 -78.4500 98° East 489 563 41,000  Level FlightAware
06:48PM 41.9170 -78.3110 99° East 491 565 41,000  Level FlightAware
06:49PM 41.9040 -78.1900 98° East 491 565 41,000  Level FlightAware
06:49PM 41.8890 -78.0610 99° East 492 566 41,000  Level FlightAware
06:50PM 41.8780 -77.9640 99° East 492 566 41,000  Level FlightAware
06:51PM 41.8600 -77.8390 101° East 489 563 41,000  Level FlightAware
06:51PM 41.8290 -77.7140 108° East 487 560 41,000  Level FlightAware
06:52PM 41.8020 -77.6110 109° East 487 560 41,000  Level FlightAware
06:53PM 41.7710 -77.4980 110° East 487 560 41,000  Level FlightAware
06:53PM 41.7380 -77.3720 109° East 488 562 41,000  Level FlightAware
06:54PM 41.7138 -77.2821 110° East 489 563 41,000 -420 Level FlightAware ADS-B
06:55PM 41.6790 -77.1550 110° East 487 560 40,500 -720 Descending FlightAware
06:55PM 41.6729 -77.1301 108° East 489 563 40,400 -1,020 Descending FlightAware ADS-B
06:55PM 41.6467 -77.0329 110° East 484 557 39,800 -1,140 Descending FlightAware ADS-B
06:56PM 41.6226 -76.9442 110° East 484 557 39,200 -1,080 Descending FlightAware ADS-B
06:57PM 41.5922 -76.8323 110° East 473 544 38,500 -900 Descending FlightAware ADS-B
06:57PM 41.5609 -76.7177 110° East 463 533 38,000 -1,200 Descending FlightAware ADS-B
06:58PM 41.5356 -76.6259 110° East 460 529 37,000 -2,400 Descending FlightAware ADS-B
06:58PM 41.5107 -76.5359 110° East 466 536 35,300 -3,240 Descending FlightAware ADS-B
06:59PM 41.4874 -76.4522 110° East 485 558 33,500 -2,700 Descending FlightAware ADS-B
06:59PM 41.4638 -76.3674 110° East 494 568 32,600 -1,800 Descending FlightAware ADS-B
07:00PM 41.4392 -76.2791 110° East 501 577 31,700 -1,800 Descending FlightAware ADS-B
07:01PM 41.4098 -76.1736 110° East 505 581 30,600 -1,680 Descending FlightAware ADS-B
07:01PM 41.3724 -76.0404 110° East 505 581 29,400 -2,460 Descending FlightAware ADS-B
07:02PM 41.3471 -75.9507 111° Southeast 510 587 27,500 -3,720 Descending FlightAware ADS-B
07:02PM 41.3207 -75.8567 110° East 500 575 25,500 -3,240 Descending FlightAware ADS-B
07:03PM 41.2941 -75.7629 111° Southeast 485 558 24,000 -2,280 Descending FlightAware ADS-B
07:03PM 41.2695 -75.6773 111° Southeast 475 547 23,100 -960 Descending FlightAware ADS-B
07:04PM 41.2404 -75.5894 114° Southeast 475 547 23,000 -120 Descending FlightAware ADS-B
07:05PM 41.2126 -75.5082 114° Southeast 475 547 23,000  Level FlightAware ADS-B
07:05PM 41.1842 -75.4246 114° Southeast 476 548 23,000  Level FlightAware ADS-B
07:06PM 41.1566 -75.3432 114° Southeast 476 548 23,000  Level FlightAware ADS-B
07:06PM 41.1296 -75.2628 114° Southeast 479 551 23,000  Level FlightAware ADS-B
07:07PM 41.1027 -75.1830 114° Southeast 455 524 23,000  Level FlightAware ADS-B
07:07PM 41.0774 -75.1079 114° Southeast 422 486 23,000  Level FlightAware ADS-B
07:08PM 41.0545 -75.0400 114° Southeast 388 447 23,000  Level FlightAware ADS-B
07:08PM 41.0314 -74.9725 114° Southeast 369 425 23,000  Level FlightAware ADS-B
07:09PM 41.0101 -74.9106 114° Southeast 367 422 23,000  Level FlightAware ADS-B
07:09PM 41.0029 -74.8877 113° Southeast 370 426 23,000 -360 Level FlightAware ADS-B
07:09PM 40.9925 -74.8374 105° East 374 430 22,800 -780 Descending FlightAware ADS-B
07:09PM 40.9883 -74.8017 99° East 375 432 22,500 -1,320 Descending FlightAware ADS-B
07:10PM 40.9879 -74.7855 92° East 377 434 22,300 -1,320 Descending FlightAware ADS-B
07:10PM 40.9888 -74.7705 85° East 379 436 22,200 -1,380 Descending FlightAware ADS-B
07:10PM 40.9959 -74.7353 75° East 383 441 21,800 -1,500 Descending FlightAware ADS-B
07:10PM 41.0073 -74.7065 62° Northeast 386 444 21,500 -1,020 Descending FlightAware ADS-B
07:11PM 41.0407 -74.6397 56° Northeast 382 440 21,000 -480 Descending FlightAware ADS-B
07:11PM 41.0740 -74.5747 56° Northeast 379 436 21,000  Level FlightAware ADS-B
07:12PM 41.1034 -74.5181 55° Northeast 379 436 21,000  Level FlightAware ADS-B
07:12PM 41.1186 -74.4814 61° Northeast 378 435 21,000  Level FlightAware ADS-B
07:12PM 41.1250 -74.4622 66° East 377 434 21,000  Level FlightAware ADS-B
07:13PM 41.1361 -74.4152 73° East 374 430 21,000  Level FlightAware ADS-B
07:13PM 41.1374 -74.4047 81° East 370 426 21,000  Level FlightAware ADS-B
07:13PM 41.1380 -74.3911 87° East 367 422 21,000 -600 Level FlightAware ADS-B
07:13PM 41.1377 -74.3813 92° East 364 419 20,900 -720 Descending FlightAware ADS-B
07:13PM 41.1367 -74.3711 97° East 362 417 20,900 -780 Level FlightAware ADS-B
07:13PM 41.1311 -74.3455 106° East 354 407 20,700 -900 Descending FlightAware ADS-B
07:13PM 41.1257 -74.3306 116° Southeast 351 404 20,600 -1,200 Descending FlightAware ADS-B
07:13PM 41.1152 -74.3107 125° Southeast 343 395 20,300 -1,440 Descending FlightAware ADS-B
07:14PM 41.1093 -74.3026 134° Southeast 340 391 20,200 -1,500 Descending FlightAware ADS-B
07:14PM 41.1056 -74.2979 136° Southeast 338 389 20,100 -1,380 Descending FlightAware ADS-B
07:14PM 41.0984 -74.2904 142° Southeast 336 387 20,000 -1,380 Descending FlightAware ADS-B
07:14PM 41.0945 -74.2869 146° Southeast 334 384 19,900 -1,500 Descending FlightAware ADS-B
07:14PM 41.0621 -74.2592 147° Southeast 335 386 19,300 -1,320 Descending FlightAware ADS-B
07:14PM 41.0528 -74.2514 148° Southeast 335 386 19,200 -480 Descending FlightAware ADS-B
07:15PM 41.0131 -74.2181 148° Southeast 334 384 19,000 -240 Descending FlightAware ADS-B
07:15PM 40.9728 -74.1841 148° Southeast 337 388 19,000  Level FlightAware ADS-B
07:16PM 40.9456 -74.1609 147° Southeast 337 388 19,000  Level FlightAware ADS-B
07:16PM 40.9371 -74.1522 142° Southeast 339 390 19,000 -420 Level FlightAware ADS-B
07:16PM 40.9268 -74.1390 136° Southeast 340 391 18,900 -1,140 Descending FlightAware ADS-B
07:16PM 40.8914 -74.0873 132° Southeast 336 387 18,200 -1,320 Descending FlightAware ADS-B
07:17PM 40.8878 -74.0819 131° Southeast 336 387 18,100 -1,800 Descending FlightAware ADS-B
07:17PM 40.8598 -74.0399 131° Southeast 333 383 17,300 -1,560 Descending FlightAware ADS-B
07:17PM 40.8567 -74.0352 131° Southeast 332 382 17,300 -1,500 Level FlightAware ADS-B
07:18PM 40.8271 -73.9907 131° Southeast 329 379 16,500 -1,560 Descending FlightAware ADS-B
07:18PM 40.8217 -73.9827 132° Southeast 328 377 16,400 -1,620 Descending FlightAware ADS-B
07:18PM 40.7963 -73.9452 132° Southeast 326 375 15,700 -1,620 Descending FlightAware ADS-B
07:18PM 40.7766 -73.9171 133° Southeast 322 371 15,200 -1,560 Descending FlightAware ADS-B
07:19PM 40.7448 -73.8737 134° Southeast 317 365 14,400 -1,320 Descending FlightAware ADS-B
07:19PM 40.7149 -73.8331 134° Southeast 292 336 13,900 -1,080 Descending FlightAware ADS-B
07:20PM 40.7018 -73.8046 121° Southeast 274 315 13,500 -780 Descending FlightAware ADS-B
07:20PM 40.7010 -73.7700 92° East 265 305 13,200 -360 Descending FlightAware
07:21PM 40.7080 -73.6820 84° East 269 310 13,100 -120 Descending FlightAware
07:22PM 40.6980 -73.5940 98° East 261 300 13,100 -120 Level FlightAware
07:23PM 40.6755 -73.5502 124° Southeast 260 299 13,000 -600 Descending FlightAware ADS-B
07:23PM 40.6551 -73.5098 124° Southeast 258 297 12,500 -1,260 Descending FlightAware ADS-B
07:24PM 40.6345 -73.4690 124° Southeast 257 296 11,700 -1,740 Descending FlightAware ADS-B
07:24PM 40.6138 -73.4279 124° Southeast 258 297 10,700 -1,980 Descending FlightAware ADS-B
07:24PM 40.6011 -73.4125 137° Southeast 251 289 10,200 -1,920 Descending FlightAware ADS-B
07:24PM 40.5965 -73.4097 155° Southeast 244 281 10,100 -1,860 Descending FlightAware ADS-B
07:25PM 40.5877 -73.4073 168° South 238 274 9,800 -2,040 Descending FlightAware ADS-B
07:25PM 40.5832 -73.4074 181° South 233 268 9,700 -1,500 Descending FlightAware ADS-B
07:25PM 40.5790 -73.4083 189° South 229 264 9,600 -1,680 Descending FlightAware ADS-B
07:25PM 40.5726 -73.4113 200° South 225 259 9,400 -1,680 Descending FlightAware ADS-B
07:25PM 40.5617 -73.4248 223° Southwest 225 259 9,000 -1,680 Descending FlightAware ADS-B
07:25PM 40.5600 -73.4285 239° Southwest 217 250 8,900 -1,200 Descending FlightAware ADS-B
07:25PM 40.5523 -73.4503 245° Southwest 217 250 8,600 -1,140 Descending FlightAware ADS-B
07:26PM 40.5465 -73.4687 247° West 217 250 8,300 -1,080 Descending FlightAware ADS-B
07:26PM 40.5432 -73.4780 245° Southwest 217 250 8,200 -720 Descending FlightAware ADS-B
07:26PM 40.5368 -73.4880 230° Southwest 218 251 8,100 -300 Descending FlightAware ADS-B
07:26PM 40.5277 -73.4953 211° Southwest 221 254 8,100  Level FlightAware ADS-B
07:26PM 40.5243 -73.4973 204° Southwest 222 255 8,100  Level FlightAware ADS-B
07:26PM 40.5200 -73.4996 202° Southwest 224 258 8,100 -300 Level FlightAware ADS-B
07:27PM 40.5046 -73.5071 200° South 221 254 8,000 -780 Descending FlightAware ADS-B
07:27PM 40.4890 -73.5145 200° South 219 252 7,700 -1,020 Descending FlightAware ADS-B
07:27PM 40.4743 -73.5216 200° South 219 252 7,500 -1,080 Descending FlightAware ADS-B
07:27PM 40.4570 -73.5306 202° Southwest 219 252 7,100 -1,200 Descending FlightAware ADS-B
07:28PM 40.4403 -73.5398 203° Southwest 220 253 6,800 -1,140 Descending FlightAware ADS-B
07:28PM 40.4258 -73.5486 205° Southwest 223 257 6,500 -1,200 Descending FlightAware ADS-B
07:28PM 40.4186 -73.5563 219° Southwest 223 257 6,300 -1,320 Descending FlightAware ADS-B
07:28PM 40.4158 -73.5612 233° Southwest 220 253 6,200 -1,200 Descending FlightAware ADS-B
07:29PM 40.4103 -73.5939 258° West 220 253 5,700 -1,320 Descending FlightAware ADS-B
07:29PM 40.4102 -73.6157 270° West 221 254 5,300 -1,380 Descending FlightAware ADS-B
07:29PM 40.4100 -73.6620 270° West 221 254 4,500 -1,380 Descending FlightAware
07:30PM 40.4080 -73.7000 266° West 225 259 3,900 -1,260 Descending FlightAware
07:30PM 40.4070 -73.7220 267° West 225 259 3,600 -960 Descending FlightAware
07:31PM 40.4140 -73.7750 280° West 218 251 3,000 -900 Descending FlightAware
07:31PM 40.4230 -73.8020 294° West 216 249 2,700 -900 Descending FlightAware
07:31PM 40.4290 -73.8180 296° West 214 246 2,500 -660 Descending FlightAware
07:32PM 40.4390 -73.8470 294° West 204 235 2,300 -480 Descending FlightAware
07:32PM 40.4560 -73.8730 311° West 182 209 2,100 -300 Descending FlightAware
07:33PM 40.4680 -73.8750 353° North 180 207 2,100  Level FlightAware
07:33PM 40.4880 -73.8720 North 182 209 2,100  Level FlightAware
07:33PM 40.5030 -73.8650 20° North 186 214 2,100  Level FlightAware
07:34PM 40.5250 -73.8490 29° Northeast 186 214 2,100 -240 Level FlightAware
07:34PM 40.5440 -73.8340 31° Northeast 181 208 1,900 -720 Descending FlightAware
07:35PM 40.5630 -73.8190 31° Northeast 168 193 1,500 -900 Descending FlightAware
07:35PM 40.5800 -73.8060 30° Northeast 135 155 1,100 -780 Descending FlightAware
07:36PM 40.5940 -73.7950 31° Northeast 125 144 800 -600 Descending FlightAware
07:36PM 40.6000 -73.7900 32° Northeast 125 144 700 -720 Descending FlightAware
07:36PM 40.6130 -73.7800 30° Northeast 128 147 400 -720 Descending FlightAware
07:37PM 40.6270 -73.7690 31° Northeast 128 147 100 -660 Descending FlightAware
07:37PM 40.6370 -73.7610 31° Northeast 66 76 -240 Descending FlightAware
07:38PM 40.6410 -73.7590 21° North 23 26  Level FlightAware
07:38PM 40.6420 -73.7590 360° North 17 20  Level FlightAware
07:38PM 40.6430 -73.7600 323° Northwest 16 18  Level FlightAware
07:38PM 40.6430 -73.7620 270° West 18 21  Level FlightAware